sensor_id;sensor_type;location;lat;lon;timestamp;pressure;altitude;pressure_sealevel;temperature
79089;BMP280;68489;50.286;9.452;2023-04-01T00:01:27;95653.84;;;7.75
79089;BMP280;68489;50.286;9.452;2023-04-01T00:03:52;95666.56;;;7.71
79089;BMP280;68489;50.286;9.452;2023-04-01T00:06:19;95665.16;;;7.75
79089;BMP280;68489;50.286;9.452;2023-04-01T00:08:45;95659.44;;;7.77
79089;BMP280;68489;50.286;9.452;2023-04-01T00:11:10;95668.00;;;7.72
79089;BMP280;68489;50.286;9.452;2023-04-01T00:13:36;95656.59;;;7.65
79089;BMP280;68489;50.286;9.452;2023-04-01T00:16:01;95648.75;;;7.71
79089;BMP280;68489;50.286;9.452;2023-04-01T00:18:28;95652.75;;;7.66
79089;BMP280;68489;50.286;9.452;2023-04-01T00:20:53;95656.16;;;7.67
79089;BMP280;68489;50.286;9.452;2023-04-01T00:23:19;95666.63;;;7.61
79089;BMP280;68489;50.286;9.452;2023-04-01T00:25:45;95660.88;;;7.63
79089;BMP280;68489;50.286;9.452;2023-04-01T00:28:13;95656.16;;;7.67
79089;BMP280;68489;50.286;9.452;2023-04-01T00:30:39;95652.50;;;7.64
79089;BMP280;68489;50.286;9.452;2023-04-01T00:33:04;95652.63;;;7.61
79089;BMP280;68489;50.286;9.452;2023-04-01T00:35:30;95660.13;;;7.62
79089;BMP280;68489;50.286;9.452;2023-04-01T00:37:55;95662.31;;;7.64
79089;BMP280;68489;50.286;9.452;2023-04-01T00:40:28;95656.66;;;7.56
79089;BMP280;68489;50.286;9.452;2023-04-01T00:42:54;95655.03;;;7.59
79089;BMP280;68489;50.286;9.452;2023-04-01T00:45:35;95658.13;;;7.57
79089;BMP280;68489;50.286;9.452;2023-04-01T00:48:10;95646.53;;;7.55
79089;BMP280;68489;50.286;9.452;2023-04-01T00:50:36;95639.31;;;7.55
79089;BMP280;68489;50.286;9.452;2023-04-01T00:53:02;95647.97;;;7.56
79089;BMP280;68489;50.286;9.452;2023-04-01T00:55:30;95648.28;;;7.58
79089;BMP280;68489;50.286;9.452;2023-04-01T00:57:58;95657.56;;;7.53
79089;BMP280;68489;50.286;9.452;2023-04-01T01:00:24;95638.88;;;7.57
79089;BMP280;68489;50.286;9.452;2023-04-01T01:02:50;95636.13;;;7.51
79089;BMP280;68489;50.286;9.452;2023-04-01T01:05:17;95639.06;;;7.53
79089;BMP280;68489;50.286;9.452;2023-04-01T01:10:33;95641.84;;;7.50
79089;BMP280;68489;50.286;9.452;2023-04-01T01:13:10;95643.06;;;7.49
79089;BMP280;68489;50.286;9.452;2023-04-01T01:15:58;95638.50;;;7.49
79089;BMP280;68489;50.286;9.452;2023-04-01T01:18:35;95635.53;;;7.56
79089;BMP280;68489;50.286;9.452;2023-04-01T01:27:09;95632.50;;;7.49
79089;BMP280;68489;50.286;9.452;2023-04-01T01:29:58;95626.63;;;7.44
79089;BMP280;68489;50.286;9.452;2023-04-01T01:32:48;95631.47;;;7.46
79089;BMP280;68489;50.286;9.452;2023-04-01T01:37:51;95622.81;;;7.46
79089;BMP280;68489;50.286;9.452;2023-04-01T01:40:18;95620.31;;;7.42
79089;BMP280;68489;50.286;9.452;2023-04-01T01:42:47;95617.84;;;7.38
79089;BMP280;68489;50.286;9.452;2023-04-01T01:45:16;95616.34;;;7.47
79089;BMP280;68489;50.286;9.452;2023-04-01T01:47:43;95614.03;;;7.39
79089;BMP280;68489;50.286;9.452;2023-04-01T01:50:10;95613.25;;;7.48
79089;BMP280;68489;50.286;9.452;2023-04-01T01:52:35;95628.00;;;7.40
79089;BMP280;68489;50.286;9.452;2023-04-01T01:55:01;95613.75;;;7.37
79089;BMP280;68489;50.286;9.452;2023-04-01T01:57:28;95623.88;;;7.39
79089;BMP280;68489;50.286;9.452;2023-04-01T01:59:59;95619.50;;;7.36
79089;BMP280;68489;50.286;9.452;2023-04-01T02:02:26;95617.03;;;7.32
79089;BMP280;68489;50.286;9.452;2023-04-01T02:04:52;95617.75;;;7.33
79089;BMP280;68489;50.286;9.452;2023-04-01T02:07:24;95616.00;;;7.30
79089;BMP280;68489;50.286;9.452;2023-04-01T02:09:51;95612.94;;;7.31
79089;BMP280;68489;50.286;9.452;2023-04-01T02:12:17;95618.94;;;7.32
79089;BMP280;68489;50.286;9.452;2023-04-01T02:14:57;95621.59;;;7.32
79089;BMP280;68489;50.286;9.452;2023-04-01T02:17:27;95616.91;;;7.27
79089;BMP280;68489;50.286;9.452;2023-04-01T02:20:06;95621.41;;;7.35
79089;BMP280;68489;50.286;9.452;2023-04-01T02:22:38;95619.69;;;7.32
79089;BMP280;68489;50.286;9.452;2023-04-01T02:25:10;95615.72;;;7.28
79089;BMP280;68489;50.286;9.452;2023-04-01T02:27:37;95613.06;;;7.28
79089;BMP280;68489;50.286;9.452;2023-04-01T02:30:03;95620.19;;;7.22
79089;BMP280;68489;50.286;9.452;2023-04-01T02:32:29;95617.13;;;7.23
79089;BMP280;68489;50.286;9.452;2023-04-01T02:34:56;95611.63;;;7.27
79089;BMP280;68489;50.286;9.452;2023-04-01T02:37:21;95620.03;;;7.25
79089;BMP280;68489;50.286;9.452;2023-04-01T02:39:46;95607.69;;;7.22
79089;BMP280;68489;50.286;9.452;2023-04-01T02:42:13;95624.47;;;7.19
79089;BMP280;68489;50.286;9.452;2023-04-01T02:44:38;95615.91;;;7.24
79089;BMP280;68489;50.286;9.452;2023-04-01T02:47:03;95621.38;;;7.21
79089;BMP280;68489;50.286;9.452;2023-04-01T02:49:29;95617.13;;;7.23
79089;BMP280;68489;50.286;9.452;2023-04-01T02:51:54;95628.94;;;7.28
79089;BMP280;68489;50.286;9.452;2023-04-01T02:54:20;95626.88;;;7.32
79089;BMP280;68489;50.286;9.452;2023-04-01T02:56:45;95617.47;;;7.31
79089;BMP280;68489;50.286;9.452;2023-04-01T02:59:11;95626.03;;;7.26
79089;BMP280;68489;50.286;9.452;2023-04-01T03:01:36;95620.75;;;7.26
79089;BMP280;68489;50.286;9.452;2023-04-01T03:04:02;95626.75;;;7.26
79089;BMP280;68489;50.286;9.452;2023-04-01T03:06:27;95629.31;;;7.21
79089;BMP280;68489;50.286;9.452;2023-04-01T03:08:52;95640.69;;;7.27
79089;BMP280;68489;50.286;9.452;2023-04-01T03:11:18;95627.38;;;7.21
79089;BMP280;68489;50.286;9.452;2023-04-01T03:13:43;95634.41;;;7.24
79089;BMP280;68489;50.286;9.452;2023-04-01T03:16:09;95632.38;;;7.19
79089;BMP280;68489;50.286;9.452;2023-04-01T03:18:34;95631.94;;;7.21
79089;BMP280;68489;50.286;9.452;2023-04-01T03:21:20;95627.69;;;7.23
79089;BMP280;68489;50.286;9.452;2023-04-01T03:23:45;95634.75;;;7.17
79089;BMP280;68489;50.286;9.452;2023-04-01T03:26:10;95633.13;;;7.19
79089;BMP280;68489;50.286;9.452;2023-04-01T03:28:36;95627.28;;;7.15
79089;BMP280;68489;50.286;9.452;2023-04-01T03:31:01;95616.69;;;7.15
79089;BMP280;68489;50.286;9.452;2023-04-01T03:33:27;95608.44;;;7.23
79089;BMP280;68489;50.286;9.452;2023-04-01T03:35:52;95627.94;;;7.25
79089;BMP280;68489;50.286;9.452;2023-04-01T03:38:17;95617.25;;;7.19
79089;BMP280;68489;50.286;9.452;2023-04-01T03:40:43;95625.03;;;7.23
79089;BMP280;68489;50.286;9.452;2023-04-01T03:43:09;95615.19;;;7.24
79089;BMP280;68489;50.286;9.452;2023-04-01T03:45:35;95624.28;;;7.23
79089;BMP280;68489;50.286;9.452;2023-04-01T03:48:00;95620.75;;;7.26
79089;BMP280;68489;50.286;9.452;2023-04-01T03:50:25;95627.81;;;7.19
79089;BMP280;68489;50.286;9.452;2023-04-01T03:52:51;95631.22;;;7.20
79089;BMP280;68489;50.286;9.452;2023-04-01T03:55:16;95626.94;;;7.23
79089;BMP280;68489;50.286;9.452;2023-04-01T03:57:43;95621.38;;;7.21
79089;BMP280;68489;50.286;9.452;2023-04-01T04:00:09;95619.34;;;7.15
79089;BMP280;68489;50.286;9.452;2023-04-01T04:02:34;95613.78;;;7.13
79089;BMP280;68489;50.286;9.452;2023-04-01T04:05:00;95628.47;;;7.14
79089;BMP280;68489;50.286;9.452;2023-04-01T04:07:25;95625.66;;;7.18
79089;BMP280;68489;50.286;9.452;2023-04-01T04:09:51;95625.47;;;7.22
79089;BMP280;68489;50.286;9.452;2023-04-01T04:12:16;95626.66;;;7.21
79089;BMP280;68489;50.286;9.452;2023-04-01T04:14:41;95622.19;;;7.12
79089;BMP280;68489;50.286;9.452;2023-04-01T04:17:06;95627.09;;;7.19
79089;BMP280;68489;50.286;9.452;2023-04-01T04:19:33;95630.47;;;7.19
79089;BMP280;68489;50.286;9.452;2023-04-01T04:21:59;95634.22;;;7.13
79089;BMP280;68489;50.286;9.452;2023-04-01T04:24:26;95628.00;;;7.16
79089;BMP280;68489;50.286;9.452;2023-04-01T04:26:52;95624.63;;;7.15
79089;BMP280;68489;50.286;9.452;2023-04-01T04:29:17;95632.75;;;7.12
79089;BMP280;68489;50.286;9.452;2023-04-01T04:31:42;95636.38;;;7.14
79089;BMP280;68489;50.286;9.452;2023-04-01T04:34:08;95630.94;;;7.18
79089;BMP280;68489;50.286;9.452;2023-04-01T04:36:33;95639.59;;;7.18
79089;BMP280;68489;50.286;9.452;2023-04-01T04:38:59;95647.09;;;7.20
79089;BMP280;68489;50.286;9.452;2023-04-01T04:41:27;95635.75;;;7.19
79089;BMP280;68489;50.286;9.452;2023-04-01T04:43:54;95639.28;;;7.16
79089;BMP280;68489;50.286;9.452;2023-04-01T04:46:20;95630.84;;;7.27
79089;BMP280;68489;50.286;9.452;2023-04-01T04:48:46;95633.22;;;7.25
79089;BMP280;68489;50.286;9.452;2023-04-01T04:51:18;95638.06;;;7.27
79089;BMP280;68489;50.286;9.452;2023-04-01T04:53:45;95641.63;;;7.24
79089;BMP280;68489;50.286;9.452;2023-04-01T04:56:10;95636.88;;;7.28
79089;BMP280;68489;50.286;9.452;2023-04-01T04:58:37;95630.69;;;7.31
79089;BMP280;68489;50.286;9.452;2023-04-01T05:01:10;95630.41;;;7.29
79089;BMP280;68489;50.286;9.452;2023-04-01T05:03:36;95635.38;;;7.36
79089;BMP280;68489;50.286;9.452;2023-04-01T05:06:02;95625.25;;;7.34
79089;BMP280;68489;50.286;9.452;2023-04-01T05:08:28;95624.53;;;7.34
79089;BMP280;68489;50.286;9.452;2023-04-01T05:10:53;95622.66;;;7.25
79089;BMP280;68489;50.286;9.452;2023-04-01T05:13:18;95625.13;;;7.29
79089;BMP280;68489;50.286;9.452;2023-04-01T05:15:44;95627.47;;;7.27
79089;BMP280;68489;50.286;9.452;2023-04-01T05:18:09;95630.13;;;7.27
79089;BMP280;68489;50.286;9.452;2023-04-01T05:20:34;95627.06;;;7.28
79089;BMP280;68489;50.286;9.452;2023-04-01T05:23:00;95626.66;;;7.21
79089;BMP280;68489;50.286;9.452;2023-04-01T05:25:25;95624.16;;;7.17
79089;BMP280;68489;50.286;9.452;2023-04-01T05:27:51;95624.47;;;7.19
79089;BMP280;68489;50.286;9.452;2023-04-01T05:30:16;95626.09;;;7.16
79089;BMP280;68489;50.286;9.452;2023-04-01T05:32:42;95629.91;;;7.15
79089;BMP280;68489;50.286;9.452;2023-04-01T05:35:08;95635.63;;;7.23
79089;BMP280;68489;50.286;9.452;2023-04-01T05:37:34;95626.66;;;7.21
79089;BMP280;68489;50.286;9.452;2023-04-01T05:40:00;95638.34;;;7.29
79089;BMP280;68489;50.286;9.452;2023-04-01T05:42:25;95636.72;;;7.31
79089;BMP280;68489;50.286;9.452;2023-04-01T05:44:50;95616.75;;;7.30
79089;BMP280;68489;50.286;9.452;2023-04-01T05:47:16;95623.50;;;7.31
79089;BMP280;68489;50.286;9.452;2023-04-01T05:49:41;95625.84;;;7.29
79089;BMP280;68489;50.286;9.452;2023-04-01T05:52:06;95639.94;;;7.35
79089;BMP280;68489;50.286;9.452;2023-04-01T05:54:31;95628.22;;;7.27
79089;BMP280;68489;50.286;9.452;2023-04-01T05:56:57;95631.16;;;7.29
79089;BMP280;68489;50.286;9.452;2023-04-01T05:59:23;95626.28;;;7.37
79089;BMP280;68489;50.286;9.452;2023-04-01T06:01:48;95635.91;;;7.40
79089;BMP280;68489;50.286;9.452;2023-04-01T06:04:15;95618.47;;;7.33
79089;BMP280;68489;50.286;9.452;2023-04-01T06:06:41;95624.06;;;7.35
79089;BMP280;68489;50.286;9.452;2023-04-01T06:09:13;95639.94;;;7.35
79089;BMP280;68489;50.286;9.452;2023-04-01T06:17:41;95638.28;;;7.38
79089;BMP280;68489;50.286;9.452;2023-04-01T06:25:41;95627.63;;;7.47
79089;BMP280;68489;50.286;9.452;2023-04-01T06:39:30;95635.38;;;7.36
79089;BMP280;68489;50.286;9.452;2023-04-01T06:42:11;95634.72;;;7.41
79089;BMP280;68489;50.286;9.452;2023-04-01T06:52:55;95638.97;;;7.48
79089;BMP280;68489;50.286;9.452;2023-04-01T06:55:35;95637.06;;;7.48
79089;BMP280;68489;50.286;9.452;2023-04-01T06:58:05;95637.78;;;7.63
79089;BMP280;68489;50.286;9.452;2023-04-01T07:00:39;95633.44;;;7.60
79089;BMP280;68489;50.286;9.452;2023-04-01T07:03:23;95639.53;;;7.66
79089;BMP280;68489;50.286;9.452;2023-04-01T07:05:51;95646.22;;;7.77
79089;BMP280;68489;50.286;9.452;2023-04-01T07:08:22;95632.44;;;7.73
79089;BMP280;68489;50.286;9.452;2023-04-01T07:10:56;95634.28;;;7.81
79089;BMP280;68489;50.286;9.452;2023-04-01T07:13:31;95625.88;;;7.83
79089;BMP280;68489;50.286;9.452;2023-04-01T07:16:05;95629.72;;;7.82
79089;BMP280;68489;50.286;9.452;2023-04-01T07:18:41;95632.81;;;7.80
79089;BMP280;68489;50.286;9.452;2023-04-01T07:21:20;95616.94;;;7.80
79089;BMP280;68489;50.286;9.452;2023-04-01T07:23:47;95630.53;;;7.88
79089;BMP280;68489;50.286;9.452;2023-04-01T07:26:21;95630.63;;;7.94
79089;BMP280;68489;50.286;9.452;2023-04-01T07:28:48;95644.22;;;7.86
79089;BMP280;68489;50.286;9.452;2023-04-01T07:34:09;95636.19;;;7.96
79089;BMP280;68489;50.286;9.452;2023-04-01T07:36:45;95651.78;;;8.08
79089;BMP280;68489;50.286;9.452;2023-04-01T07:39:23;95638.94;;;8.01
79089;BMP280;68489;50.286;9.452;2023-04-01T07:42:08;95635.56;;;8.15
79089;BMP280;68489;50.286;9.452;2023-04-01T07:47:11;95654.56;;;8.14
79089;BMP280;68489;50.286;9.452;2023-04-01T07:50:03;95648.69;;;8.10
79089;BMP280;68489;50.286;9.452;2023-04-01T07:55:33;95656.75;;;8.15
79089;BMP280;68489;50.286;9.452;2023-04-01T07:58:31;95649.25;;;8.14
79089;BMP280;68489;50.286;9.452;2023-04-01T08:01:23;95657.53;;;8.22
79089;BMP280;68489;50.286;9.452;2023-04-01T08:09:16;95657.72;;;8.33
79089;BMP280;68489;50.286;9.452;2023-04-01T08:15:00;95671.06;;;8.24
79089;BMP280;68489;50.286;9.452;2023-04-01T08:20:30;95676.16;;;8.27
79089;BMP280;68489;50.286;9.452;2023-04-01T08:23:07;95679.56;;;8.28
79089;BMP280;68489;50.286;9.452;2023-04-01T08:25:45;95674.50;;;8.30
79089;BMP280;68489;50.286;9.452;2023-04-01T08:28:19;95688.22;;;8.28
79089;BMP280;68489;50.286;9.452;2023-04-01T08:31:10;95681.56;;;8.18
79089;BMP280;68489;50.286;9.452;2023-04-01T08:33:35;95688.75;;;8.18
79089;BMP280;68489;50.286;9.452;2023-04-01T08:36:22;95686.50;;;8.25
79089;BMP280;68489;50.286;9.452;2023-04-01T08:38:55;95694.34;;;8.20
79089;BMP280;68489;50.286;9.452;2023-04-01T08:47:45;95694.69;;;8.27
79089;BMP280;68489;50.286;9.452;2023-04-01T08:50:01;95690.31;;;8.39
79089;BMP280;68489;50.286;9.452;2023-04-01T08:52:53;95685.13;;;8.45
79089;BMP280;68489;50.286;9.452;2023-04-01T08:59:08;95690.22;;;8.48
79089;BMP280;68489;50.286;9.452;2023-04-01T09:01:43;95698.88;;;8.49
79089;BMP280;68489;50.286;9.452;2023-04-01T09:04:25;95706.56;;;8.47
79089;BMP280;68489;50.286;9.452;2023-04-01T09:07:29;95695.91;;;8.56
79089;BMP280;68489;50.286;9.452;2023-04-01T09:12:52;95699.78;;;8.60
79089;BMP280;68489;50.286;9.452;2023-04-01T09:18:45;95712.69;;;8.68
79089;BMP280;68489;50.286;9.452;2023-04-01T09:27:03;95710.56;;;8.72
79089;BMP280;68489;50.286;9.452;2023-04-01T09:35:31;95722.22;;;8.95
79089;BMP280;68489;50.286;9.452;2023-04-01T09:41:07;95714.69;;;9.08
79089;BMP280;68489;50.286;9.452;2023-04-01T09:43:49;95707.66;;;9.05
79089;BMP280;68489;50.286;9.452;2023-04-01T09:51:41;95715.38;;;9.23
79089;BMP280;68489;50.286;9.452;2023-04-01T10:20:14;95726.91;;;9.41
79089;BMP280;68489;50.286;9.452;2023-04-01T10:22:58;95727.31;;;9.33
79089;BMP280;68489;50.286;9.452;2023-04-01T10:25:48;95726.13;;;9.34
79089;BMP280;68489;50.286;9.452;2023-04-01T10:42:03;95722.53;;;9.37
79089;BMP280;68489;50.286;9.452;2023-04-01T10:56:42;95723.47;;;9.34
79089;BMP280;68489;50.286;9.452;2023-04-01T11:04:56;95721.06;;;9.57
79089;BMP280;68489;50.286;9.452;2023-04-01T11:08:10;95720.53;;;9.73
79089;BMP280;68489;50.286;9.452;2023-04-01T11:22:17;95725.38;;;9.75
79089;BMP280;68489;50.286;9.452;2023-04-01T11:30:29;95734.78;;;9.76
79089;BMP280;68489;50.286;9.452;2023-04-01T11:33:04;95739.97;;;9.64
79089;BMP280;68489;50.286;9.452;2023-04-01T11:39:00;95745.09;;;9.48
79089;BMP280;68489;50.286;9.452;2023-04-01T11:41:40;95749.66;;;9.47
79089;BMP280;68489;50.286;9.452;2023-04-01T11:44:27;95757.09;;;9.43
79089;BMP280;68489;50.286;9.452;2023-04-01T11:49:57;95748.59;;;9.39
79089;BMP280;68489;50.286;9.452;2023-04-01T11:52:31;95731.34;;;9.49
79089;BMP280;68489;50.286;9.452;2023-04-01T11:55:25;95752.19;;;9.56
79089;BMP280;68489;50.286;9.452;2023-04-01T11:58:06;95748.94;;;9.67
79089;BMP280;68489;50.286;9.452;2023-04-01T12:00:57;95755.28;;;9.55
79089;BMP280;68489;50.286;9.452;2023-04-01T12:03:46;95756.13;;;9.46
79089;BMP280;68489;50.286;9.452;2023-04-01T12:06:43;95754.91;;;9.42
79089;BMP280;68489;50.286;9.452;2023-04-01T12:09:36;95769.28;;;9.35
79089;BMP280;68489;50.286;9.452;2023-04-01T12:12:14;95761.50;;;9.31
79089;BMP280;68489;50.286;9.452;2023-04-01T12:28:29;95771.13;;;9.29
79089;BMP280;68489;50.286;9.452;2023-04-01T12:34:40;95771.06;;;9.23
79089;BMP280;68489;50.286;9.452;2023-04-01T12:37:27;95762.03;;;9.15
79089;BMP280;68489;50.286;9.452;2023-04-01T12:42:44;95779.63;;;9.33
79089;BMP280;68489;50.286;9.452;2023-04-01T12:45:41;95772.41;;;9.33
79089;BMP280;68489;50.286;9.452;2023-04-01T12:48:42;95760.47;;;9.44
79089;BMP280;68489;50.286;9.452;2023-04-01T12:52:12;95765.00;;;9.58
79089;BMP280;68489;50.286;9.452;2023-04-01T12:57:48;95769.25;;;9.70
79089;BMP280;68489;50.286;9.452;2023-04-01T13:00:34;95774.22;;;9.62
79089;BMP280;68489;50.286;9.452;2023-04-01T13:03:33;95769.78;;;9.54
79089;BMP280;68489;50.286;9.452;2023-04-01T13:09:05;95782.31;;;9.53
79089;BMP280;68489;50.286;9.452;2023-04-01T13:11:49;95785.31;;;9.46
79089;BMP280;68489;50.286;9.452;2023-04-01T13:20:22;95790.31;;;9.38
79089;BMP280;68489;50.286;9.452;2023-04-01T13:23:11;95793.78;;;9.45
79089;BMP280;68489;50.286;9.452;2023-04-01T13:26:03;95780.16;;;9.37
79089;BMP280;68489;50.286;9.452;2023-04-01T13:28:39;95807.03;;;9.45
79089;BMP280;68489;50.286;9.452;2023-04-01T13:31:16;95809.78;;;9.35
79089;BMP280;68489;50.286;9.452;2023-04-01T13:33:54;95816.94;;;9.29
79089;BMP280;68489;50.286;9.452;2023-04-01T13:36:44;95807.88;;;9.36
79089;BMP280;68489;50.286;9.452;2023-04-01T13:42:16;95807.63;;;9.54
79089;BMP280;68489;50.286;9.452;2023-04-01T13:44:48;95803.59;;;9.59
79089;BMP280;68489;50.286;9.452;2023-04-01T13:53:04;95811.53;;;10.00
79089;BMP280;68489;50.286;9.452;2023-04-01T13:58:38;95808.38;;;9.96
79089;BMP280;68489;50.286;9.452;2023-04-01T14:01:22;95818.72;;;9.94
79089;BMP280;68489;50.286;9.452;2023-04-01T14:04:03;95812.63;;;9.87
79089;BMP280;68489;50.286;9.452;2023-04-01T14:06:52;95816.31;;;9.96
79089;BMP280;68489;50.286;9.452;2023-04-01T14:12:44;95817.94;;;9.87
79089;BMP280;68489;50.286;9.452;2023-04-01T14:21:07;95809.25;;;9.87
79089;BMP280;68489;50.286;9.452;2023-04-01T14:29:51;95821.31;;;9.68
79089;BMP280;68489;50.286;9.452;2023-04-01T14:32:48;95823.44;;;9.63
79089;BMP280;68489;50.286;9.452;2023-04-01T14:35:38;95817.78;;;9.56
79089;BMP280;68489;50.286;9.452;2023-04-01T14:38:23;95830.50;;;9.52
79089;BMP280;68489;50.286;9.452;2023-04-01T14:40:55;95823.03;;;9.50
79089;BMP280;68489;50.286;9.452;2023-04-01T14:46:17;95833.91;;;9.73
79089;BMP280;68489;50.286;9.452;2023-04-01T14:48:58;95832.34;;;9.81
79089;BMP280;68489;50.286;9.452;2023-04-01T14:51:36;95827.88;;;9.93
79089;BMP280;68489;50.286;9.452;2023-04-01T14:54:31;95826.66;;;9.94
79089;BMP280;68489;50.286;9.452;2023-04-01T14:57:23;95834.09;;;10.10
79089;BMP280;68489;50.286;9.452;2023-04-01T15:02:59;95833.75;;;9.97
79089;BMP280;68489;50.286;9.452;2023-04-01T15:05:47;95854.22;;;9.96
79089;BMP280;68489;50.286;9.452;2023-04-01T15:08:22;95859.09;;;9.98
79089;BMP280;68489;50.286;9.452;2023-04-01T15:10:59;95851.75;;;9.93
79089;BMP280;68489;50.286;9.452;2023-04-01T15:16:07;95851.56;;;9.96
79089;BMP280;68489;50.286;9.452;2023-04-01T15:19:01;95846.19;;;9.91
79089;BMP280;68489;50.286;9.452;2023-04-01T15:21:45;95850.91;;;9.81
79089;BMP280;68489;50.286;9.452;2023-04-01T15:30:13;95873.91;;;9.34
79089;BMP280;68489;50.286;9.452;2023-04-01T15:35:31;95864.97;;;9.02
79089;BMP280;68489;50.286;9.452;2023-04-01T15:38:14;95869.53;;;9.01
79089;BMP280;68489;50.286;9.452;2023-04-01T15:41:03;95877.38;;;9.10
79089;BMP280;68489;50.286;9.452;2023-04-01T15:43:45;95883.16;;;9.09
79089;BMP280;68489;50.286;9.452;2023-04-01T15:46:43;95883.63;;;9.07
79089;BMP280;68489;50.286;9.452;2023-04-01T15:49:22;95875.66;;;9.07
79089;BMP280;68489;50.286;9.452;2023-04-01T15:52:06;95874.94;;;9.07
79089;BMP280;68489;50.286;9.452;2023-04-01T15:57:40;95883.25;;;9.14
79089;BMP280;68489;50.286;9.452;2023-04-01T16:00:29;95895.56;;;9.32
79089;BMP280;68489;50.286;9.452;2023-04-01T16:13:48;95900.88;;;9.32
79089;BMP280;68489;50.286;9.452;2023-04-01T16:16:41;95902.97;;;9.28
79089;BMP280;68489;50.286;9.452;2023-04-01T16:19:32;95912.94;;;9.19
79089;BMP280;68489;50.286;9.452;2023-04-01T16:27:44;95914.78;;;9.12
79089;BMP280;68489;50.286;9.452;2023-04-01T16:30:32;95915.59;;;9.19
79089;BMP280;68489;50.286;9.452;2023-04-01T16:33:32;95915.69;;;9.24
79089;BMP280;68489;50.286;9.452;2023-04-01T16:36:12;95922.72;;;9.27
79089;BMP280;68489;50.286;9.452;2023-04-01T16:44:46;95933.09;;;9.25
79089;BMP280;68489;50.286;9.452;2023-04-01T16:47:17;95931.06;;;9.20
79089;BMP280;68489;50.286;9.452;2023-04-01T16:49:52;95938.63;;;9.27
79089;BMP280;68489;50.286;9.452;2023-04-01T16:52:35;95942.75;;;9.28
79089;BMP280;68489;50.286;9.452;2023-04-01T16:55:16;95949.91;;;9.22
79089;BMP280;68489;50.286;9.452;2023-04-01T16:57:55;95960.34;;;9.26
79089;BMP280;68489;50.286;9.452;2023-04-01T17:00:48;95972.28;;;9.21
79089;BMP280;68489;50.286;9.452;2023-04-01T17:03:22;95971.78;;;9.17
79089;BMP280;68489;50.286;9.452;2023-04-01T17:11:12;95998.03;;;8.91
79089;BMP280;68489;50.286;9.452;2023-04-01T17:13:52;96000.94;;;8.78
79089;BMP280;68489;50.286;9.452;2023-04-01T17:16:42;96010.41;;;8.70
79089;BMP280;68489;50.286;9.452;2023-04-01T17:22:32;96018.59;;;8.24
79089;BMP280;68489;50.286;9.452;2023-04-01T17:25:20;96016.19;;;8.11
79089;BMP280;68489;50.286;9.452;2023-04-01T17:27:58;96034.09;;;8.07
79089;BMP280;68489;50.286;9.452;2023-04-01T17:30:34;96028.28;;;7.94
79089;BMP280;68489;50.286;9.452;2023-04-01T17:33:13;96031.56;;;7.80
79089;BMP280;68489;50.286;9.452;2023-04-01T17:35:56;96034.78;;;7.75
79089;BMP280;68489;50.286;9.452;2023-04-01T17:46:36;96034.25;;;7.61
79089;BMP280;68489;50.286;9.452;2023-04-01T17:52:02;96047.16;;;7.68
79089;BMP280;68489;50.286;9.452;2023-04-01T17:54:43;96052.75;;;7.71
79089;BMP280;68489;50.286;9.452;2023-04-01T17:57:46;96060.84;;;7.67
79089;BMP280;68489;50.286;9.452;2023-04-01T18:02:46;96066.13;;;7.67
79089;BMP280;68489;50.286;9.452;2023-04-01T18:11:34;96079.81;;;7.56
79089;BMP280;68489;50.286;9.452;2023-04-01T18:14:45;96079.66;;;7.51
79089;BMP280;68489;50.286;9.452;2023-04-01T18:17:24;96077.91;;;7.48
79089;BMP280;68489;50.286;9.452;2023-04-01T18:22:44;96098.88;;;7.42
79089;BMP280;68489;50.286;9.452;2023-04-01T18:25:24;96097.28;;;7.44
79089;BMP280;68489;50.286;9.452;2023-04-01T18:30:36;96109.47;;;7.33
79089;BMP280;68489;50.286;9.452;2023-04-01T18:36:13;96116.25;;;7.34
79089;BMP280;68489;50.286;9.452;2023-04-01T18:38:46;96113.28;;;7.32
79089;BMP280;68489;50.286;9.452;2023-04-01T18:41:49;96122.53;;;7.36
79089;BMP280;68489;50.286;9.452;2023-04-01T18:44:29;96127.38;;;7.38
79089;BMP280;68489;50.286;9.452;2023-04-01T18:50:18;96127.69;;;7.40
79089;BMP280;68489;50.286;9.452;2023-04-01T18:52:51;96137.09;;;7.41
79089;BMP280;68489;50.286;9.452;2023-04-01T18:55:34;96141.50;;;7.44
79089;BMP280;68489;50.286;9.452;2023-04-01T18:58:23;96146.66;;;7.48
79089;BMP280;68489;50.286;9.452;2023-04-01T19:01:12;96138.97;;;7.50
79089;BMP280;68489;50.286;9.452;2023-04-01T19:03:57;96149.44;;;7.53
79089;BMP280;68489;50.286;9.452;2023-04-01T19:06:48;96150.75;;;7.58
79089;BMP280;68489;50.286;9.452;2023-04-01T19:09:32;96165.16;;;7.57
79089;BMP280;68489;50.286;9.452;2023-04-01T19:18:13;96155.16;;;7.61
79089;BMP280;68489;50.286;9.452;2023-04-01T19:21:28;96160.31;;;7.64
79089;BMP280;68489;50.286;9.452;2023-04-01T19:24:16;96164.44;;;7.65
79089;BMP280;68489;50.286;9.452;2023-04-01T19:27:03;96167.81;;;7.66
79089;BMP280;68489;50.286;9.452;2023-04-01T19:29:49;96166.94;;;7.69
79089;BMP280;68489;50.286;9.452;2023-04-01T19:38:00;96174.72;;;7.73
79089;BMP280;68489;50.286;9.452;2023-04-01T19:43:29;96180.28;;;7.75
79089;BMP280;68489;50.286;9.452;2023-04-01T19:46:20;96181.94;;;7.81
79089;BMP280;68489;50.286;9.452;2023-04-01T19:52:00;96185.16;;;7.85
79089;BMP280;68489;50.286;9.452;2023-04-01T19:57:21;96188.25;;;7.84
79089;BMP280;68489;50.286;9.452;2023-04-01T20:10:48;96214.41;;;7.91
79089;BMP280;68489;50.286;9.452;2023-04-01T20:13:30;96215.72;;;7.96
79089;BMP280;68489;50.286;9.452;2023-04-01T20:16:08;96212.66;;;7.88
79089;BMP280;68489;50.286;9.452;2023-04-01T20:18:51;96215.44;;;7.84
79089;BMP280;68489;50.286;9.452;2023-04-01T20:21:33;96223.97;;;7.88
79089;BMP280;68489;50.286;9.452;2023-04-01T20:26:48;96220.28;;;7.95
79089;BMP280;68489;50.286;9.452;2023-04-01T20:29:34;96229.13;;;8.01
79089;BMP280;68489;50.286;9.452;2023-04-01T20:34:57;96239.53;;;7.96
79089;BMP280;68489;50.286;9.452;2023-04-01T20:37:37;96243.66;;;7.97
79089;BMP280;68489;50.286;9.452;2023-04-01T20:45:55;96243.38;;;7.95
79089;BMP280;68489;50.286;9.452;2023-04-01T20:48:57;96254.97;;;7.97
79089;BMP280;68489;50.286;9.452;2023-04-01T20:51:30;96257.06;;;7.93
79089;BMP280;68489;50.286;9.452;2023-04-01T20:57:24;96261.03;;;7.98
79089;BMP280;68489;50.286;9.452;2023-04-01T21:00:11;96263.38;;;7.96
79089;BMP280;68489;50.286;9.452;2023-04-01T21:11:37;96277.34;;;8.05
79089;BMP280;68489;50.286;9.452;2023-04-01T21:14:43;96274.53;;;8.00
79089;BMP280;68489;50.286;9.452;2023-04-01T21:18:09;96278.53;;;8.04
79089;BMP280;68489;50.286;9.452;2023-04-01T21:28:34;96296.16;;;7.98
79089;BMP280;68489;50.286;9.452;2023-04-01T21:31:11;96298.38;;;8.00